createdAt,value
2022-12-05T00:00:17.388Z,3.92
2022-12-05T00:02:47.115Z,4.02
2022-12-05T00:05:16.877Z,3.93
2022-12-05T00:07:46.739Z,3.90
2022-12-05T00:10:17.298Z,3.81
2022-12-05T00:12:47.043Z,3.68
2022-12-05T00:15:16.781Z,3.87
2022-12-05T00:17:46.491Z,4.06
2022-12-05T00:20:15.991Z,4.17
2022-12-05T00:22:45.808Z,3.99
2022-12-05T00:25:15.569Z,3.83
2022-12-05T00:27:45.606Z,3.75
2022-12-05T00:30:15.170Z,3.86
2022-12-05T00:32:45.097Z,3.78
2022-12-05T00:35:14.549Z,3.60
2022-12-05T00:37:44.297Z,3.83
2022-12-05T00:40:15.157Z,3.93
2022-12-05T00:42:50.847Z,3.74
2022-12-05T00:45:16.177Z,4.04
2022-12-05T00:47:45.938Z,3.86
2022-12-05T00:50:15.680Z,3.92
2022-12-05T00:52:45.314Z,3.86
2022-12-05T00:55:15.059Z,3.70
2022-12-05T00:57:44.839Z,3.69
2022-12-05T01:00:14.828Z,3.76
2022-12-05T01:02:44.629Z,3.70
2022-12-05T01:05:14.092Z,3.80
2022-12-05T01:07:43.919Z,3.95
2022-12-05T01:10:15.692Z,4.07
2022-12-05T01:12:45.754Z,4.02
2022-12-05T01:15:15.503Z,4.18
2022-12-05T01:17:45.280Z,4.18
2022-12-05T01:20:15.024Z,4.09
2022-12-05T01:22:44.750Z,4.01
2022-12-05T01:25:14.498Z,4.22
2022-12-05T01:27:44.548Z,4.03
2022-12-05T01:30:15.049Z,3.98
2022-12-05T01:32:44.804Z,3.92
2022-12-05T01:35:14.644Z,3.89
2022-12-05T01:37:44.800Z,3.97
2022-12-05T01:40:14.448Z,3.97
2022-12-05T01:42:44.329Z,3.96
2022-12-05T01:45:19.589Z,3.99
2022-12-05T01:47:49.453Z,3.94
2022-12-05T01:50:19.048Z,3.94
2022-12-05T01:52:48.850Z,3.92
2022-12-05T01:55:20.233Z,3.80
2022-12-05T01:57:50.613Z,4.12
2022-12-05T02:00:21.373Z,4.18
2022-12-05T02:02:54.239Z,4.10
2022-12-05T02:05:29.986Z,3.91
2022-12-05T02:08:02.648Z,3.93
2022-12-05T02:10:37.976Z,3.79
2022-12-05T02:13:19.319Z,3.81
2022-12-05T02:15:57.915Z,3.88
2022-12-05T02:18:33.299Z,3.91
2022-12-05T02:21:29.679Z,3.86
2022-12-05T02:24:05.717Z,3.88
2022-12-05T02:26:53.046Z,3.82
2022-12-05T02:29:46.243Z,4.09
2022-12-05T02:32:24.650Z,4.01
2022-12-05T02:35:05.946Z,3.77
2022-12-05T02:40:28.910Z,4.06
2022-12-05T02:43:01.849Z,3.86
2022-12-05T02:45:35.173Z,4.07
2022-12-05T02:48:07.381Z,3.93
2022-12-05T02:50:40.020Z,3.93
2022-12-05T02:53:12.983Z,3.82
2022-12-05T02:55:45.057Z,3.87
2022-12-05T02:58:17.837Z,3.96
2022-12-05T03:00:50.659Z,4.03
2022-12-05T03:03:23.156Z,4.14
2022-12-05T03:05:58.434Z,4.36
2022-12-05T03:08:31.222Z,4.23
2022-12-05T03:11:03.159Z,4.35
2022-12-05T03:13:38.865Z,4.38
2022-12-05T03:16:12.943Z,4.56
2022-12-05T03:18:48.477Z,4.50
2022-12-05T03:21:22.315Z,4.58
2022-12-05T03:23:55.430Z,4.35
2022-12-05T03:26:37.686Z,4.26
2022-12-05T03:29:30.094Z,4.34
2022-12-05T03:32:05.690Z,4.26
2022-12-05T03:34:50.524Z,4.38
2022-12-05T03:37:23.577Z,4.37
2022-12-05T03:39:57.066Z,4.42
2022-12-05T03:42:32.251Z,4.48
2022-12-05T03:45:13.257Z,4.43
2022-12-05T03:47:51.808Z,4.43
2022-12-05T03:50:27.143Z,4.35
2022-12-05T03:55:36.760Z,4.37
2022-12-05T03:58:13.805Z,4.29
2022-12-05T04:00:44.004Z,4.35
2022-12-05T04:03:18.741Z,4.28
2022-12-05T04:05:57.280Z,4.24
2022-12-05T04:08:32.450Z,4.41
2022-12-05T04:11:07.695Z,4.47
2022-12-05T04:13:57.475Z,4.55
2022-12-05T04:16:47.331Z,4.56
2022-12-05T04:19:25.908Z,4.54
2022-12-05T04:21:57.836Z,4.59
2022-12-05T04:24:50.851Z,4.30
2022-12-05T04:27:32.435Z,4.39
2022-12-05T04:30:11.253Z,4.60
2022-12-05T04:32:52.809Z,4.86
2022-12-05T04:35:25.591Z,4.55
2022-12-05T04:37:58.679Z,4.47
2022-12-05T04:40:34.536Z,4.43
2022-12-05T04:43:05.630Z,4.36
2022-12-05T04:45:38.709Z,4.38
2022-12-05T04:48:12.876Z,4.60
2022-12-05T04:50:45.507Z,4.66
2022-12-05T04:53:17.405Z,4.81
2022-12-05T04:55:50.023Z,4.81
2022-12-05T04:58:25.235Z,4.65
2022-12-05T05:01:15.031Z,4.58
2022-12-05T05:03:48.298Z,4.78
2022-12-05T05:06:18.488Z,4.89
2022-12-05T05:08:56.954Z,4.82
2022-12-05T05:11:31.978Z,4.79
2022-12-05T05:14:02.548Z,4.77
2022-12-05T05:16:34.799Z,4.73
2022-12-05T05:19:05.433Z,5.05
2022-12-05T05:21:37.695Z,4.80
2022-12-05T05:24:11.499Z,4.80
2022-12-05T05:26:43.574Z,4.67
2022-12-05T05:29:14.841Z,4.73
2022-12-05T05:31:44.763Z,4.79
2022-12-05T05:34:16.117Z,4.94
2022-12-05T05:36:45.869Z,4.91
2022-12-05T05:39:16.672Z,4.96
2022-12-05T05:41:46.508Z,5.10
2022-12-05T05:44:16.256Z,5.10
2022-12-05T05:46:46.075Z,4.88
2022-12-05T05:49:15.851Z,5.12
2022-12-05T05:51:45.890Z,5.12
2022-12-05T05:54:15.698Z,5.11
2022-12-05T05:56:45.501Z,4.91
2022-12-05T05:59:15.561Z,4.99
2022-12-05T06:01:45.008Z,5.04
2022-12-05T06:04:14.828Z,5.17
2022-12-05T06:06:44.316Z,4.94
2022-12-05T06:09:14.087Z,5.00
2022-12-05T06:11:43.868Z,4.86
2022-12-05T06:14:13.622Z,4.70
2022-12-05T06:16:43.757Z,4.85
2022-12-05T06:19:13.539Z,4.73
2022-12-05T06:21:43.278Z,4.92
2022-12-05T06:24:13.078Z,4.88
2022-12-05T06:26:43.561Z,4.78
2022-12-05T06:29:13.317Z,4.77
2022-12-05T06:31:43.493Z,4.83
2022-12-05T06:34:13.142Z,4.89
2022-12-05T06:36:42.984Z,4.90
2022-12-05T06:39:12.716Z,5.01
2022-12-05T06:41:42.557Z,5.01
2022-12-05T06:44:13.086Z,4.95
2022-12-05T06:46:42.822Z,4.69
2022-12-05T06:49:12.733Z,4.69
2022-12-05T06:51:42.490Z,4.63
2022-12-05T06:54:14.617Z,4.60
2022-12-05T06:56:44.654Z,4.94
2022-12-05T06:59:14.407Z,4.81
2022-12-05T07:01:46.333Z,4.92
2022-12-05T07:04:23.283Z,4.87
2022-12-05T07:06:55.735Z,5.11
2022-12-05T07:09:44.810Z,5.16
2022-12-05T07:12:16.709Z,5.14
2022-12-05T07:14:49.284Z,5.04
2022-12-05T07:17:22.924Z,5.01
2022-12-05T07:19:53.902Z,4.99
2022-12-05T07:22:24.307Z,5.21
2022-12-05T07:24:54.305Z,5.22
2022-12-05T07:27:27.690Z,4.90
2022-12-05T07:29:55.384Z,4.98
2022-12-05T07:32:25.229Z,5.06
2022-12-05T07:34:55.791Z,5.45
2022-12-05T07:37:25.712Z,5.02
2022-12-05T07:39:55.535Z,5.19
2022-12-05T07:42:25.451Z,5.16
2022-12-05T07:44:55.208Z,5.30
2022-12-05T07:47:25.077Z,5.35
2022-12-05T07:49:55.052Z,5.16
2022-12-05T07:52:24.647Z,5.07
2022-12-05T07:54:54.413Z,5.26
2022-12-05T07:57:24.176Z,5.37
2022-12-05T07:59:54.044Z,5.48
2022-12-05T08:02:24.116Z,5.22
2022-12-05T08:04:53.908Z,5.16
2022-12-05T08:07:23.752Z,5.23
2022-12-05T08:09:53.520Z,5.19
2022-12-05T08:12:23.034Z,5.22
2022-12-05T08:14:52.764Z,5.13
2022-12-05T08:17:22.538Z,5.06
2022-12-05T08:19:52.267Z,4.91
2022-12-05T08:22:22.031Z,5.11
2022-12-05T08:24:56.265Z,5.12
2022-12-05T08:27:23.554Z,5.25
2022-12-05T08:29:56.067Z,4.89
2022-12-05T08:32:27.249Z,4.80
2022-12-05T08:34:57.089Z,5.03
2022-12-05T08:37:26.924Z,5.07
2022-12-05T08:39:57.026Z,4.90
2022-12-05T08:42:26.783Z,5.24
2022-12-05T08:44:56.901Z,5.14
2022-12-05T08:47:27.228Z,5.37
2022-12-05T08:49:57.238Z,5.47
2022-12-05T08:52:27.063Z,5.55
2022-12-05T08:54:57.191Z,5.13
2022-12-05T08:57:27.324Z,5.20
2022-12-05T08:59:57.089Z,5.20
2022-12-05T09:02:26.619Z,5.31
2022-12-05T09:05:05.189Z,4.86
2022-12-05T09:07:28.551Z,5.11
2022-12-05T09:09:58.352Z,5.15
2022-12-05T09:12:27.928Z,5.17
2022-12-05T09:14:58.849Z,5.11
2022-12-05T09:17:28.671Z,5.24
2022-12-05T09:19:58.780Z,5.36
2022-12-05T09:22:28.553Z,5.01
2022-12-05T09:24:58.584Z,5.33
2022-12-05T09:27:29.920Z,5.44
2022-12-05T09:29:59.919Z,5.26
2022-12-05T09:32:29.821Z,5.36
2022-12-05T09:34:59.989Z,5.57
2022-12-05T09:37:39.342Z,5.42
2022-12-05T09:40:01.811Z,5.59
2022-12-05T09:42:56.764Z,5.43
2022-12-05T09:45:38.449Z,5.18
2022-12-05T09:48:15.475Z,5.51
2022-12-05T09:50:51.217Z,5.45
2022-12-05T09:53:31.981Z,5.40
2022-12-05T09:56:13.659Z,5.47
2022-12-05T09:58:54.892Z,5.61
2022-12-05T10:01:40.709Z,5.57
2022-12-05T10:04:35.708Z,5.79
2022-12-05T10:07:24.789Z,5.53
2022-12-05T10:10:10.311Z,5.71
2022-12-05T10:12:59.606Z,5.60
2022-12-05T10:15:35.605Z,5.64
2022-12-05T10:18:24.033Z,5.61
2022-12-05T10:20:56.952Z,5.89
2022-12-05T10:23:56.184Z,5.80
2022-12-05T10:26:04.210Z,5.73
2022-12-05T10:28:42.684Z,5.87
2022-12-05T10:31:15.645Z,5.84
2022-12-05T10:33:48.963Z,5.76
2022-12-05T10:36:19.047Z,5.74
2022-12-05T10:38:50.142Z,5.80
2022-12-05T10:41:19.982Z,5.64
2022-12-05T10:43:49.849Z,5.64
2022-12-05T10:46:19.676Z,5.86
2022-12-05T10:48:49.454Z,5.98
2022-12-05T10:51:22.245Z,5.94
2022-12-05T10:53:54.350Z,5.95
2022-12-05T10:56:45.053Z,5.85
2022-12-05T10:59:18.336Z,5.95
2022-12-05T11:01:56.936Z,5.84
2022-12-05T11:04:35.581Z,5.97
2022-12-05T11:07:06.547Z,5.82
2022-12-05T11:09:39.996Z,5.88
2022-12-05T11:12:17.086Z,5.83
2022-12-05T11:15:09.116Z,5.69
2022-12-05T11:17:40.941Z,5.93
2022-12-05T11:20:25.058Z,5.70
2022-12-05T11:22:58.743Z,5.67
2022-12-05T11:25:33.953Z,5.71
2022-12-05T11:28:24.395Z,5.67
2022-12-05T11:31:06.103Z,5.61
2022-12-05T11:33:37.321Z,5.50
2022-12-05T11:36:17.079Z,5.69
2022-12-05T11:38:47.000Z,5.69
2022-12-05T11:41:43.489Z,5.68
2022-12-05T11:44:28.059Z,5.69
2022-12-05T11:47:15.374Z,5.56
2022-12-05T11:50:02.909Z,5.66
2022-12-05T11:52:41.395Z,5.43
2022-12-05T11:55:16.803Z,5.43
2022-12-05T11:58:04.394Z,5.51
2022-12-05T12:01:04.055Z,5.39
2022-12-05T12:03:51.844Z,5.52
2022-12-05T12:06:27.189Z,5.61
2022-12-05T12:09:06.012Z,5.50
2022-12-05T12:11:44.683Z,5.56
2022-12-05T12:14:17.173Z,5.52
2022-12-05T12:16:55.550Z,5.63
2022-12-05T12:19:42.667Z,5.81
2022-12-05T12:22:22.764Z,5.77
2022-12-05T12:24:58.515Z,5.72
2022-12-05T12:27:58.665Z,5.56
2022-12-05T12:30:35.497Z,5.66
2022-12-05T12:33:11.594Z,5.66
2022-12-05T12:35:50.328Z,5.85
2022-12-05T12:41:31.762Z,5.90
2022-12-05T12:44:34.578Z,5.87
2022-12-05T12:47:25.342Z,5.91
2022-12-05T12:50:13.085Z,5.86
2022-12-05T12:52:57.593Z,5.84
2022-12-05T12:55:38.859Z,5.84
2022-12-05T12:58:42.152Z,5.96
2022-12-05T13:01:31.160Z,6.17
2022-12-05T13:04:07.195Z,6.38
2022-12-05T13:06:52.381Z,6.22
2022-12-05T13:09:30.383Z,6.10
2022-12-05T13:12:05.904Z,6.27
2022-12-05T13:14:38.028Z,6.05
2022-12-05T13:17:09.594Z,6.07
2022-12-05T13:19:45.391Z,6.27
2022-12-05T13:22:16.853Z,6.31
2022-12-05T13:24:47.030Z,6.31
2022-12-05T13:27:22.312Z,6.34
2022-12-05T13:30:08.071Z,6.43
2022-12-05T13:32:38.148Z,6.31
2022-12-05T13:35:37.238Z,6.38
2022-12-05T13:38:41.218Z,5.98
2022-12-05T13:41:28.483Z,5.96
2022-12-05T13:44:06.290Z,5.96
2022-12-05T13:46:33.559Z,5.96
2022-12-05T13:49:07.382Z,5.84
2022-12-05T13:51:41.014Z,5.75
2022-12-05T13:54:18.223Z,5.78
2022-12-05T13:56:58.422Z,6.11
2022-12-05T14:00:00.552Z,6.01
2022-12-05T14:02:48.620Z,6.13
2022-12-05T14:05:21.206Z,6.13
2022-12-05T14:07:59.784Z,5.92
2022-12-05T14:10:38.641Z,5.99
2022-12-05T14:13:20.449Z,5.82
2022-12-05T14:15:52.414Z,5.67
2022-12-05T14:18:27.840Z,6.06
2022-12-05T14:21:12.090Z,6.06
2022-12-05T14:24:03.435Z,5.94
2022-12-05T14:26:42.204Z,5.90
2022-12-05T14:29:46.633Z,5.90
2022-12-05T14:32:25.306Z,5.87
2022-12-05T14:35:15.888Z,5.87
2022-12-05T14:38:08.750Z,6.10
2022-12-05T14:40:44.449Z,6.01
2022-12-05T14:43:35.280Z,6.10
2022-12-05T14:46:09.325Z,6.00
2022-12-05T14:48:47.314Z,6.04
2022-12-05T14:51:32.496Z,6.13
2022-12-05T14:54:19.831Z,6.05
2022-12-05T14:56:55.224Z,6.18
2022-12-05T15:00:02.847Z,5.99
2022-12-05T15:02:36.181Z,6.21
2022-12-05T15:05:16.548Z,6.16
2022-12-05T15:07:48.499Z,6.25
2022-12-05T15:10:23.990Z,6.08
2022-12-05T15:12:59.183Z,6.11
2022-12-05T15:15:32.391Z,6.05
2022-12-05T15:18:27.708Z,6.10
2022-12-05T15:21:22.785Z,6.09
2022-12-05T15:24:01.332Z,6.14
2022-12-05T15:26:54.323Z,6.16
2022-12-05T15:29:27.901Z,6.07
2022-12-05T15:32:02.889Z,6.21
2022-12-05T15:34:44.649Z,6.28
2022-12-05T15:37:36.787Z,6.30
2022-12-05T15:40:14.661Z,6.32
2022-12-05T15:42:47.324Z,6.33
2022-12-05T15:45:21.822Z,6.37
2022-12-05T15:47:59.909Z,6.37
2022-12-05T15:50:41.006Z,6.36
2022-12-05T15:53:16.422Z,6.35
2022-12-05T15:55:54.889Z,6.49
2022-12-05T15:58:36.054Z,6.46
2022-12-05T16:01:14.406Z,6.54
2022-12-05T16:04:02.370Z,6.53
2022-12-05T16:06:41.094Z,6.68
2022-12-05T16:09:19.505Z,6.63
2022-12-05T16:12:03.931Z,6.63
2022-12-05T16:17:14.023Z,6.46
2022-12-05T16:19:44.189Z,6.49
2022-12-05T16:22:23.215Z,6.48
2022-12-05T16:24:59.271Z,6.44
2022-12-05T16:27:31.922Z,6.43
2022-12-05T16:30:16.678Z,6.53
2022-12-05T16:32:49.101Z,6.50
2022-12-05T16:35:33.726Z,6.50
2022-12-05T16:38:29.754Z,6.48
2022-12-05T16:41:09.050Z,6.45
2022-12-05T16:43:41.904Z,6.60
2022-12-05T16:46:17.463Z,6.48
2022-12-05T16:48:49.657Z,6.60
2022-12-05T16:51:22.327Z,6.64
2022-12-05T16:53:54.571Z,6.70
2022-12-05T16:56:32.566Z,6.54
2022-12-05T16:59:04.810Z,6.64
2022-12-05T17:01:39.174Z,6.68
2022-12-05T17:04:12.856Z,6.57
2022-12-05T17:06:42.643Z,6.56
2022-12-05T17:09:13.112Z,6.62
2022-12-05T17:11:45.201Z,6.63
2022-12-05T17:14:16.557Z,6.63
2022-12-05T17:16:46.961Z,6.49
2022-12-05T17:19:16.760Z,6.60
2022-12-05T17:21:46.697Z,6.52
2022-12-05T17:24:19.046Z,6.51
2022-12-05T17:26:49.160Z,6.40
2022-12-05T17:29:19.053Z,6.49
2022-12-05T17:31:49.351Z,6.58
2022-12-05T17:34:19.513Z,6.68
2022-12-05T17:36:49.458Z,6.71
2022-12-05T17:39:22.417Z,6.65
2022-12-05T17:41:50.645Z,6.62
2022-12-05T17:44:20.481Z,6.52
2022-12-05T17:46:50.344Z,6.52
2022-12-05T17:49:20.204Z,6.54
2022-12-05T17:54:23.006Z,6.36
2022-12-05T17:56:52.820Z,6.57
2022-12-05T17:59:24.221Z,6.46
2022-12-05T18:01:53.963Z,6.49
2022-12-05T18:04:23.816Z,6.42
2022-12-05T18:06:53.572Z,6.57
2022-12-05T18:09:23.971Z,6.51
2022-12-05T18:11:53.777Z,6.64
2022-12-05T18:14:26.439Z,6.55
2022-12-05T18:16:56.505Z,6.51
2022-12-05T18:19:26.695Z,6.50
2022-12-05T18:21:56.421Z,6.68
2022-12-05T18:24:26.179Z,6.44
2022-12-05T18:26:56.082Z,6.54
2022-12-05T18:29:25.927Z,6.67
2022-12-05T18:31:55.771Z,6.62
2022-12-05T18:34:25.428Z,6.48
2022-12-05T18:36:56.055Z,6.44
2022-12-05T18:39:25.983Z,6.57
2022-12-05T18:41:55.744Z,6.50
2022-12-05T18:44:25.851Z,6.43
2022-12-05T18:46:55.593Z,6.63
2022-12-05T18:49:25.873Z,6.68
2022-12-05T18:51:55.626Z,6.55
2022-12-05T18:54:25.350Z,6.54
2022-12-05T18:56:55.377Z,6.61
2022-12-05T18:59:25.759Z,6.57
2022-12-05T19:01:56.021Z,6.59
2022-12-05T19:04:25.444Z,6.58
2022-12-05T19:06:58.562Z,6.67
2022-12-05T19:09:30.964Z,6.62
2022-12-05T19:12:01.554Z,6.62
2022-12-05T19:14:33.019Z,6.55
2022-12-05T19:17:04.331Z,6.67
2022-12-05T19:19:34.392Z,6.34
2022-12-05T19:22:04.134Z,6.19
2022-12-05T19:24:33.859Z,6.48
2022-12-05T19:27:03.892Z,6.48
2022-12-05T19:29:33.642Z,6.48
2022-12-05T19:32:03.424Z,6.44
2022-12-05T19:34:34.569Z,6.63
2022-12-05T19:37:04.288Z,6.53
2022-12-05T19:39:34.422Z,6.71
2022-12-05T19:42:04.205Z,6.68
2022-12-05T19:44:33.972Z,6.69
2022-12-05T19:47:03.775Z,6.65
2022-12-05T19:49:33.567Z,6.66
2022-12-05T19:52:03.965Z,6.50
2022-12-05T19:54:33.721Z,6.45
2022-12-05T19:57:03.514Z,6.70
2022-12-05T19:59:33.326Z,6.57
2022-12-05T20:02:03.542Z,6.42
2022-12-05T20:04:33.112Z,6.56
2022-12-05T20:07:02.909Z,6.59
2022-12-05T20:09:34.305Z,6.44
2022-12-05T20:12:04.553Z,6.39
2022-12-05T20:14:34.732Z,6.52
2022-12-05T20:17:05.365Z,6.55
2022-12-05T20:19:35.073Z,6.47
2022-12-05T20:22:05.125Z,6.74
2022-12-05T20:24:35.158Z,6.65
2022-12-05T20:27:06.261Z,6.55
2022-12-05T20:29:38.509Z,6.63
2022-12-05T20:32:09.080Z,6.63
2022-12-05T20:34:39.115Z,6.60
2022-12-05T20:37:09.245Z,6.72
2022-12-05T20:39:39.284Z,6.78
2022-12-05T20:42:08.840Z,6.82
2022-12-05T20:44:38.940Z,6.69
2022-12-05T20:47:08.665Z,6.64
2022-12-05T20:49:38.721Z,6.64
2022-12-05T20:52:08.467Z,6.69
2022-12-05T20:54:38.199Z,6.71
2022-12-05T20:57:08.423Z,6.79
2022-12-05T20:59:38.483Z,6.74
2022-12-05T21:02:08.625Z,6.68
2022-12-05T21:04:40.199Z,6.67
2022-12-05T21:07:10.324Z,6.51
2022-12-05T21:09:40.398Z,6.60
2022-12-05T21:12:12.265Z,6.62
2022-12-05T21:14:42.009Z,6.74
2022-12-05T21:17:13.389Z,6.69
2022-12-05T21:19:45.061Z,6.53
2022-12-05T21:22:15.142Z,6.57
2022-12-05T21:24:45.168Z,6.58
2022-12-05T21:27:14.936Z,6.45
2022-12-05T21:29:44.473Z,6.46
2022-12-05T21:32:15.329Z,6.51
2022-12-05T21:34:45.444Z,6.58
2022-12-05T21:37:15.159Z,6.50
2022-12-05T21:39:44.919Z,6.54
2022-12-05T21:42:14.355Z,6.59
2022-12-05T21:44:44.175Z,6.55
2022-12-05T21:47:14.090Z,6.33
2022-12-05T21:49:43.812Z,6.35
2022-12-05T21:52:13.871Z,6.33
2022-12-05T21:54:43.599Z,6.49
2022-12-05T21:57:13.633Z,6.63
2022-12-05T21:59:43.356Z,6.47
2022-12-05T22:02:13.182Z,6.29
2022-12-05T22:04:42.985Z,6.55
2022-12-05T22:07:12.782Z,6.44
2022-12-05T22:09:42.892Z,6.47
2022-12-05T22:12:14.547Z,6.53
2022-12-05T22:14:44.267Z,6.52
2022-12-05T22:17:14.322Z,6.51
2022-12-05T22:19:44.137Z,6.48
2022-12-05T22:22:15.476Z,6.38
2022-12-05T22:24:45.232Z,6.47
2022-12-05T22:27:14.976Z,6.58
2022-12-05T22:29:47.393Z,6.39
2022-12-05T22:32:16.709Z,6.35
2022-12-05T22:34:46.443Z,6.35
2022-12-05T22:37:16.189Z,6.52
2022-12-05T22:39:46.210Z,6.63
2022-12-05T22:42:15.978Z,6.53
2022-12-05T22:44:46.033Z,6.37
2022-12-05T22:47:16.060Z,6.64
2022-12-05T22:49:46.089Z,6.55
2022-12-05T22:52:15.928Z,6.63
2022-12-05T22:54:46.011Z,6.36
2022-12-05T22:57:15.736Z,6.52
2022-12-05T22:59:45.748Z,6.36
2022-12-05T23:02:15.486Z,6.42
2022-12-05T23:04:46.174Z,6.43
2022-12-05T23:07:15.975Z,6.31
2022-12-05T23:09:46.004Z,6.54
2022-12-05T23:12:15.726Z,6.39
2022-12-05T23:14:45.746Z,6.48
2022-12-05T23:17:15.470Z,6.48
2022-12-05T23:19:45.486Z,6.41
2022-12-05T23:22:14.980Z,6.49
2022-12-05T23:24:45.066Z,6.52
2022-12-05T23:27:16.033Z,6.55
2022-12-05T23:29:46.875Z,6.42
2022-12-05T23:32:16.587Z,6.35
2022-12-05T23:34:46.677Z,6.35
2022-12-05T23:37:16.412Z,6.48
2022-12-05T23:39:46.438Z,6.57
2022-12-05T23:42:16.163Z,6.55
2022-12-05T23:44:46.200Z,6.50
2022-12-05T23:47:16.026Z,6.63
2022-12-05T23:49:46.085Z,6.57
2022-12-05T23:52:15.807Z,6.38
2022-12-05T23:54:45.522Z,6.52
2022-12-05T23:57:17.786Z,6.60
2022-12-05T23:59:47.283Z,6.47
